<?xml version="1.0" encoding="UTF-8" standalone="no" ?>
<gpx xmlns="http://www.topografix.com/GPX/1/1" xmlns:xsi="http://www.w3.org/2001/XMLSchema-instance" xsi:schemaLocation="http://www.topografix.com/GPX/1/1 http://www.topografix.com/GPX/1/1/gpx.xsd" version="1.1" creator="VisuGPX - https://www.visugpx.com">
  <metadata>
    <name>l-Antonienne 2018 15km</name>
    <desc><![CDATA[AVF Antony 
l-Antonienne 2018 15km]]></desc>
  </metadata>
  <trk>
    <name><![CDATA[Antonnienne 15 km]]></name>
    <trkseg>
      <trkpt lat="48.74763" lon="2.29358">
        <ele>54</ele>
        <time>2017-11-14T10:57:08Z</time>
      </trkpt>
      <trkpt lat="48.74779" lon="2.29368">
        <ele>54</ele>
        <time>2017-11-14T10:57:13Z</time>
      </trkpt>
      <trkpt lat="48.74797" lon="2.29366">
        <ele>55</ele>
        <time>2017-11-14T10:57:18Z</time>
      </trkpt>
      <trkpt lat="48.74808" lon="2.29385">
        <ele>55</ele>
        <time>2017-11-14T10:57:23Z</time>
      </trkpt>
      <trkpt lat="48.74849" lon="2.29452">
        <ele>54</ele>
        <time>2017-11-14T10:57:28Z</time>
      </trkpt>
      <trkpt lat="48.74863" lon="2.29439">
        <ele>55</ele>
        <time>2017-11-14T10:57:33Z</time>
      </trkpt>
      <trkpt lat="48.74867" lon="2.29425">
        <ele>54</ele>
        <time>2017-11-14T10:57:38Z</time>
      </trkpt>
      <trkpt lat="48.74821" lon="2.29353">
        <ele>55</ele>
        <time>2017-11-14T10:57:43Z</time>
      </trkpt>
      <trkpt lat="48.74817" lon="2.29326">
        <ele>56</ele>
        <time>2017-11-14T10:57:48Z</time>
      </trkpt>
      <trkpt lat="48.74789" lon="2.29277">
        <ele>57</ele>
        <time>2017-11-14T10:57:53Z</time>
      </trkpt>
      <trkpt lat="48.74788" lon="2.29238">
        <ele>59</ele>
        <time>2017-11-14T10:57:58Z</time>
      </trkpt>
      <trkpt lat="48.7473" lon="2.29181">
        <ele>58</ele>
        <time>2017-11-14T10:58:03Z</time>
      </trkpt>
      <trkpt lat="48.74706" lon="2.2913">
        <ele>58</ele>
        <time>2017-11-14T10:58:08Z</time>
      </trkpt>
      <trkpt lat="48.74691" lon="2.29094">
        <ele>58</ele>
        <time>2017-11-14T10:58:13Z</time>
      </trkpt>
      <trkpt lat="48.74666" lon="2.2906">
        <ele>57</ele>
        <time>2017-11-14T10:58:18Z</time>
      </trkpt>
      <trkpt lat="48.74655" lon="2.29042">
        <ele>56</ele>
        <time>2017-11-14T10:58:23Z</time>
      </trkpt>
      <trkpt lat="48.74636" lon="2.28972">
        <ele>56</ele>
        <time>2017-11-14T10:58:28Z</time>
      </trkpt>
      <trkpt lat="48.74615" lon="2.28952">
        <ele>55</ele>
        <time>2017-11-14T10:58:33Z</time>
      </trkpt>
      <trkpt lat="48.74626" lon="2.28939">
        <ele>56</ele>
        <time>2017-11-14T10:58:38Z</time>
      </trkpt>
      <trkpt lat="48.74621" lon="2.28898">
        <ele>57</ele>
        <time>2017-11-14T10:58:43Z</time>
      </trkpt>
      <trkpt lat="48.74602" lon="2.28858">
        <ele>57</ele>
        <time>2017-11-14T10:58:48Z</time>
      </trkpt>
      <trkpt lat="48.74592" lon="2.2881">
        <ele>57</ele>
        <time>2017-11-14T10:58:53Z</time>
      </trkpt>
      <trkpt lat="48.74588" lon="2.28783">
        <ele>56</ele>
        <time>2017-11-14T10:58:58Z</time>
      </trkpt>
      <trkpt lat="48.74578" lon="2.28754">
        <ele>55</ele>
        <time>2017-11-14T10:59:03Z</time>
      </trkpt>
      <trkpt lat="48.7463" lon="2.28688">
        <ele>57</ele>
        <time>2017-11-14T10:59:08Z</time>
      </trkpt>
      <trkpt lat="48.74657" lon="2.28663">
        <ele>59</ele>
        <time>2017-11-14T10:59:13Z</time>
      </trkpt>
      <trkpt lat="48.74687" lon="2.28615">
        <ele>59</ele>
        <time>2017-11-14T10:59:18Z</time>
      </trkpt>
      <trkpt lat="48.74752" lon="2.28541">
        <ele>61</ele>
        <time>2017-11-14T10:59:23Z</time>
      </trkpt>
      <trkpt lat="48.74805" lon="2.28485">
        <ele>64</ele>
        <time>2017-11-14T10:59:28Z</time>
      </trkpt>
      <trkpt lat="48.74817" lon="2.28485">
        <ele>64</ele>
        <time>2017-11-14T10:59:33Z</time>
      </trkpt>
      <trkpt lat="48.74862" lon="2.28419">
        <ele>67</ele>
        <time>2017-11-14T10:59:38Z</time>
      </trkpt>
      <trkpt lat="48.74878" lon="2.28413">
        <ele>68</ele>
        <time>2017-11-14T10:59:43Z</time>
      </trkpt>
      <trkpt lat="48.74882" lon="2.28382">
        <ele>69</ele>
        <time>2017-11-14T10:59:48Z</time>
      </trkpt>
      <trkpt lat="48.7491" lon="2.28353">
        <ele>70</ele>
        <time>2017-11-14T10:59:53Z</time>
      </trkpt>
      <trkpt lat="48.74927" lon="2.28317">
        <ele>71</ele>
        <time>2017-11-14T10:59:58Z</time>
      </trkpt>
      <trkpt lat="48.74947" lon="2.28298">
        <ele>71</ele>
        <time>2017-11-14T11:00:03Z</time>
      </trkpt>
      <trkpt lat="48.74957" lon="2.28316">
        <ele>72</ele>
        <time>2017-11-14T11:00:08Z</time>
      </trkpt>
      <trkpt lat="48.74957" lon="2.28346">
        <ele>72</ele>
        <time>2017-11-14T11:00:13Z</time>
      </trkpt>
      <trkpt lat="48.74993" lon="2.28312">
        <ele>73</ele>
        <time>2017-11-14T11:00:18Z</time>
      </trkpt>
      <trkpt lat="48.75026" lon="2.283">
        <ele>75</ele>
        <time>2017-11-14T11:00:23Z</time>
      </trkpt>
      <trkpt lat="48.75051" lon="2.28269">
        <ele>75</ele>
        <time>2017-11-14T11:00:28Z</time>
      </trkpt>
      <trkpt lat="48.75098" lon="2.28237">
        <ele>77</ele>
        <time>2017-11-14T11:00:33Z</time>
      </trkpt>
      <trkpt lat="48.75148" lon="2.28203">
        <ele>80</ele>
        <time>2017-11-14T11:00:38Z</time>
      </trkpt>
      <trkpt lat="48.75186" lon="2.28178">
        <ele>81</ele>
        <time>2017-11-14T11:00:43Z</time>
      </trkpt>
      <trkpt lat="48.75225" lon="2.28132">
        <ele>81</ele>
        <time>2017-11-14T11:00:48Z</time>
      </trkpt>
      <trkpt lat="48.75226" lon="2.28132">
        <ele>81</ele>
        <time>2017-11-14T11:00:53Z</time>
      </trkpt>
      <trkpt lat="48.75209" lon="2.28125">
        <ele>81</ele>
        <time>2017-11-14T11:00:58Z</time>
      </trkpt>
      <trkpt lat="48.75198" lon="2.28113">
        <ele>81</ele>
        <time>2017-11-14T11:01:03Z</time>
      </trkpt>
      <trkpt lat="48.75158" lon="2.28118">
        <ele>80</ele>
        <time>2017-11-14T11:01:08Z</time>
      </trkpt>
      <trkpt lat="48.75139" lon="2.28074">
        <ele>79</ele>
        <time>2017-11-14T11:01:13Z</time>
      </trkpt>
      <trkpt lat="48.75151" lon="2.28008">
        <ele>83</ele>
        <time>2017-11-14T11:01:18Z</time>
      </trkpt>
      <trkpt lat="48.75169" lon="2.27953">
        <ele>84</ele>
        <time>2017-11-14T11:01:23Z</time>
      </trkpt>
      <trkpt lat="48.75185" lon="2.27936">
        <ele>83</ele>
        <time>2017-11-14T11:01:28Z</time>
      </trkpt>
      <trkpt lat="48.75185" lon="2.27932">
        <ele>84</ele>
        <time>2017-11-14T11:01:33Z</time>
      </trkpt>
      <trkpt lat="48.75171" lon="2.27898">
        <ele>84</ele>
        <time>2017-11-14T11:01:38Z</time>
      </trkpt>
      <trkpt lat="48.7516" lon="2.27884">
        <ele>84</ele>
        <time>2017-11-14T11:01:43Z</time>
      </trkpt>
      <trkpt lat="48.7516" lon="2.27883">
        <ele>84</ele>
        <time>2017-11-14T11:01:48Z</time>
      </trkpt>
      <trkpt lat="48.75144" lon="2.27833">
        <ele>82</ele>
        <time>2017-11-14T11:01:53Z</time>
      </trkpt>
      <trkpt lat="48.75136" lon="2.27786">
        <ele>83</ele>
        <time>2017-11-14T11:01:58Z</time>
      </trkpt>
      <trkpt lat="48.75128" lon="2.27774">
        <ele>84</ele>
        <time>2017-11-14T11:02:03Z</time>
      </trkpt>
      <trkpt lat="48.75128" lon="2.27774">
        <ele>84</ele>
        <time>2017-11-14T11:02:08Z</time>
      </trkpt>
      <trkpt lat="48.75118" lon="2.27771">
        <ele>84</ele>
        <time>2017-11-14T11:02:13Z</time>
      </trkpt>
      <trkpt lat="48.75119" lon="2.27743">
        <ele>84</ele>
        <time>2017-11-14T11:02:18Z</time>
      </trkpt>
      <trkpt lat="48.7516" lon="2.27717">
        <ele>84</ele>
        <time>2017-11-14T11:02:23Z</time>
      </trkpt>
      <trkpt lat="48.75179" lon="2.27683">
        <ele>85</ele>
        <time>2017-11-14T11:02:28Z</time>
      </trkpt>
      <trkpt lat="48.75181" lon="2.27644">
        <ele>85</ele>
        <time>2017-11-14T11:02:33Z</time>
      </trkpt>
      <trkpt lat="48.75199" lon="2.27575">
        <ele>88</ele>
        <time>2017-11-14T11:02:38Z</time>
      </trkpt>
      <trkpt lat="48.75198" lon="2.27573">
        <ele>88</ele>
        <time>2017-11-14T11:02:43Z</time>
      </trkpt>
      <trkpt lat="48.75201" lon="2.27504">
        <ele>88</ele>
        <time>2017-11-14T11:02:48Z</time>
      </trkpt>
      <trkpt lat="48.75202" lon="2.27504">
        <ele>88</ele>
        <time>2017-11-14T11:02:53Z</time>
      </trkpt>
      <trkpt lat="48.7519" lon="2.2744">
        <ele>87</ele>
        <time>2017-11-14T11:02:58Z</time>
      </trkpt>
      <trkpt lat="48.75187" lon="2.2743">
        <ele>87</ele>
        <time>2017-11-14T11:03:03Z</time>
      </trkpt>
      <trkpt lat="48.75186" lon="2.27392">
        <ele>88</ele>
        <time>2017-11-14T11:03:08Z</time>
      </trkpt>
      <trkpt lat="48.75176" lon="2.27353">
        <ele>90</ele>
        <time>2017-11-14T11:03:13Z</time>
      </trkpt>
      <trkpt lat="48.75174" lon="2.27288">
        <ele>92</ele>
        <time>2017-11-14T11:03:18Z</time>
      </trkpt>
      <trkpt lat="48.75172" lon="2.2724">
        <ele>92</ele>
        <time>2017-11-14T11:03:23Z</time>
      </trkpt>
      <trkpt lat="48.75132" lon="2.27234">
        <ele>93</ele>
        <time>2017-11-14T11:03:28Z</time>
      </trkpt>
      <trkpt lat="48.75122" lon="2.27219">
        <ele>94</ele>
        <time>2017-11-14T11:03:33Z</time>
      </trkpt>
      <trkpt lat="48.75134" lon="2.27197">
        <ele>95</ele>
        <time>2017-11-14T11:03:38Z</time>
      </trkpt>
      <trkpt lat="48.75125" lon="2.2712">
        <ele>97</ele>
        <time>2017-11-14T11:03:43Z</time>
      </trkpt>
      <trkpt lat="48.75232" lon="2.27111">
        <ele>96</ele>
        <time>2017-11-14T11:03:48Z</time>
      </trkpt>
      <trkpt lat="48.75233" lon="2.27109">
        <ele>96</ele>
        <time>2017-11-14T11:03:53Z</time>
      </trkpt>
      <trkpt lat="48.75231" lon="2.27088">
        <ele>96</ele>
        <time>2017-11-14T11:03:58Z</time>
      </trkpt>
      <trkpt lat="48.75223" lon="2.27073">
        <ele>96</ele>
        <time>2017-11-14T11:04:03Z</time>
      </trkpt>
      <trkpt lat="48.7522" lon="2.27019">
        <ele>97</ele>
        <time>2017-11-14T11:04:08Z</time>
      </trkpt>
      <trkpt lat="48.7522" lon="2.27015">
        <ele>97</ele>
        <time>2017-11-14T11:04:13Z</time>
      </trkpt>
      <trkpt lat="48.75238" lon="2.26976">
        <ele>98</ele>
        <time>2017-11-14T11:04:18Z</time>
      </trkpt>
      <trkpt lat="48.75148" lon="2.26866">
        <ele>99</ele>
        <time>2017-11-14T11:04:23Z</time>
      </trkpt>
      <trkpt lat="48.75064" lon="2.27042">
        <ele>99</ele>
        <time>2017-11-14T11:04:28Z</time>
      </trkpt>
      <trkpt lat="48.74916" lon="2.2685">
        <ele>95</ele>
        <time>2017-11-14T11:04:33Z</time>
      </trkpt>
      <trkpt lat="48.74886" lon="2.268">
        <ele>94</ele>
        <time>2017-11-14T11:04:38Z</time>
      </trkpt>
      <trkpt lat="48.74858" lon="2.26702">
        <ele>95</ele>
        <time>2017-11-14T11:04:43Z</time>
      </trkpt>
      <trkpt lat="48.74821" lon="2.26648">
        <ele>95</ele>
        <time>2017-11-14T11:04:48Z</time>
      </trkpt>
      <trkpt lat="48.74781" lon="2.26726">
        <ele>93</ele>
        <time>2017-11-14T11:04:53Z</time>
      </trkpt>
      <trkpt lat="48.74749" lon="2.26679">
        <ele>93</ele>
        <time>2017-11-14T11:04:58Z</time>
      </trkpt>
      <trkpt lat="48.74737" lon="2.26638">
        <ele>91</ele>
        <time>2017-11-14T11:05:03Z</time>
      </trkpt>
      <trkpt lat="48.747" lon="2.26635">
        <ele>89</ele>
        <time>2017-11-14T11:05:08Z</time>
      </trkpt>
      <trkpt lat="48.74723" lon="2.26556">
        <ele>90</ele>
        <time>2017-11-14T11:05:13Z</time>
      </trkpt>
      <trkpt lat="48.74753" lon="2.26464">
        <ele>96</ele>
        <time>2017-11-14T11:05:18Z</time>
      </trkpt>
      <trkpt lat="48.7476" lon="2.26413">
        <ele>99</ele>
        <time>2017-11-14T11:05:23Z</time>
      </trkpt>
      <trkpt lat="48.74754" lon="2.26376">
        <ele>99</ele>
        <time>2017-11-14T11:05:28Z</time>
      </trkpt>
      <trkpt lat="48.74738" lon="2.26402">
        <ele>98</ele>
        <time>2017-11-14T11:05:33Z</time>
      </trkpt>
      <trkpt lat="48.74709" lon="2.26473">
        <ele>92</ele>
        <time>2017-11-14T11:05:38Z</time>
      </trkpt>
      <trkpt lat="48.74682" lon="2.26419">
        <ele>90</ele>
        <time>2017-11-14T11:05:43Z</time>
      </trkpt>
      <trkpt lat="48.74742" lon="2.26345">
        <ele>98</ele>
        <time>2017-11-14T11:05:48Z</time>
      </trkpt>
      <trkpt lat="48.74756" lon="2.26361">
        <ele>99</ele>
        <time>2017-11-14T11:05:53Z</time>
      </trkpt>
      <trkpt lat="48.74772" lon="2.26358">
        <ele>100</ele>
        <time>2017-11-14T11:05:58Z</time>
      </trkpt>
      <trkpt lat="48.74791" lon="2.26421">
        <ele>101</ele>
        <time>2017-11-14T11:06:03Z</time>
      </trkpt>
      <trkpt lat="48.74819" lon="2.26341">
        <ele>102</ele>
        <time>2017-11-14T11:06:08Z</time>
      </trkpt>
      <trkpt lat="48.74852" lon="2.2629">
        <ele>101</ele>
        <time>2017-11-14T11:06:13Z</time>
      </trkpt>
      <trkpt lat="48.7482" lon="2.26249">
        <ele>100</ele>
        <time>2017-11-14T11:06:18Z</time>
      </trkpt>
      <trkpt lat="48.74842" lon="2.26215">
        <ele>101</ele>
        <time>2017-11-14T11:06:23Z</time>
      </trkpt>
      <trkpt lat="48.7485" lon="2.26221">
        <ele>101</ele>
        <time>2017-11-14T11:06:28Z</time>
      </trkpt>
      <trkpt lat="48.74915" lon="2.26105">
        <ele>107</ele>
        <time>2017-11-14T11:06:33Z</time>
      </trkpt>
      <trkpt lat="48.74853" lon="2.26008">
        <ele>101</ele>
        <time>2017-11-14T11:06:38Z</time>
      </trkpt>
      <trkpt lat="48.74894" lon="2.25938">
        <ele>106</ele>
        <time>2017-11-14T11:06:43Z</time>
      </trkpt>
      <trkpt lat="48.74922" lon="2.2586">
        <ele>110</ele>
        <time>2017-11-14T11:06:48Z</time>
      </trkpt>
      <trkpt lat="48.74991" lon="2.25765">
        <ele>116</ele>
        <time>2017-11-14T11:06:53Z</time>
      </trkpt>
      <trkpt lat="48.75056" lon="2.25837">
        <ele>124</ele>
        <time>2017-11-14T11:06:58Z</time>
      </trkpt>
      <trkpt lat="48.7517" lon="2.25982">
        <ele>139</ele>
        <time>2017-11-14T11:07:03Z</time>
      </trkpt>
      <trkpt lat="48.75166" lon="2.25826">
        <ele>145</ele>
        <time>2017-11-14T11:07:08Z</time>
      </trkpt>
      <trkpt lat="48.75178" lon="2.25788">
        <ele>149</ele>
        <time>2017-11-14T11:07:13Z</time>
      </trkpt>
      <trkpt lat="48.75192" lon="2.25764">
        <ele>153</ele>
        <time>2017-11-14T11:07:18Z</time>
      </trkpt>
      <trkpt lat="48.75235" lon="2.25564">
        <ele>164</ele>
        <time>2017-11-14T11:07:23Z</time>
      </trkpt>
      <trkpt lat="48.75253" lon="2.25506">
        <ele>167</ele>
        <time>2017-11-14T11:07:28Z</time>
      </trkpt>
      <trkpt lat="48.75366" lon="2.25433">
        <ele>172</ele>
        <time>2017-11-14T11:07:33Z</time>
      </trkpt>
      <trkpt lat="48.75391" lon="2.2512">
        <ele>174</ele>
        <time>2017-11-14T11:07:38Z</time>
      </trkpt>
      <trkpt lat="48.7542" lon="2.24821">
        <ele>177</ele>
        <time>2017-11-14T11:07:43Z</time>
      </trkpt>
      <trkpt lat="48.75745" lon="2.24573">
        <ele>180</ele>
        <time>2017-11-14T11:07:48Z</time>
      </trkpt>
      <trkpt lat="48.75956" lon="2.24403">
        <ele>179</ele>
        <time>2017-11-14T11:07:53Z</time>
      </trkpt>
      <trkpt lat="48.75948" lon="2.24376">
        <ele>179</ele>
        <time>2017-11-14T11:07:58Z</time>
      </trkpt>
      <trkpt lat="48.75946" lon="2.24373">
        <ele>179</ele>
        <time>2017-11-14T11:08:03Z</time>
      </trkpt>
      <trkpt lat="48.75436" lon="2.23179">
        <ele>153</ele>
        <time>2017-11-14T11:08:08Z</time>
      </trkpt>
      <trkpt lat="48.75352" lon="2.23218">
        <ele>139</ele>
        <time>2017-11-14T11:08:13Z</time>
      </trkpt>
      <trkpt lat="48.75318" lon="2.23217">
        <ele>133</ele>
        <time>2017-11-14T11:08:18Z</time>
      </trkpt>
      <trkpt lat="48.75262" lon="2.23242">
        <ele>124</ele>
        <time>2017-11-14T11:08:23Z</time>
      </trkpt>
      <trkpt lat="48.75214" lon="2.23249">
        <ele>121</ele>
        <time>2017-11-14T11:08:28Z</time>
      </trkpt>
      <trkpt lat="48.75186" lon="2.2329">
        <ele>124</ele>
        <time>2017-11-14T11:08:33Z</time>
      </trkpt>
      <trkpt lat="48.7519" lon="2.23283">
        <ele>123</ele>
        <time>2017-11-14T11:08:38Z</time>
      </trkpt>
      <trkpt lat="48.7516" lon="2.23306">
        <ele>125</ele>
        <time>2017-11-14T11:08:43Z</time>
      </trkpt>
      <trkpt lat="48.75124" lon="2.23298">
        <ele>122</ele>
        <time>2017-11-14T11:08:48Z</time>
      </trkpt>
      <trkpt lat="48.75049" lon="2.23223">
        <ele>109</ele>
        <time>2017-11-14T11:08:53Z</time>
      </trkpt>
      <trkpt lat="48.7501" lon="2.23258">
        <ele>111</ele>
        <time>2017-11-14T11:08:58Z</time>
      </trkpt>
      <trkpt lat="48.75039" lon="2.23326">
        <ele>120</ele>
        <time>2017-11-14T11:09:03Z</time>
      </trkpt>
      <trkpt lat="48.74991" lon="2.23358">
        <ele>121</ele>
        <time>2017-11-14T11:09:08Z</time>
      </trkpt>
      <trkpt lat="48.74967" lon="2.23393">
        <ele>122</ele>
        <time>2017-11-14T11:09:13Z</time>
      </trkpt>
      <trkpt lat="48.74957" lon="2.2341">
        <ele>122</ele>
        <time>2017-11-14T11:09:18Z</time>
      </trkpt>
      <trkpt lat="48.74945" lon="2.23475">
        <ele>127</ele>
        <time>2017-11-14T11:09:23Z</time>
      </trkpt>
      <trkpt lat="48.7491" lon="2.235">
        <ele>123</ele>
        <time>2017-11-14T11:09:28Z</time>
      </trkpt>
      <trkpt lat="48.74882" lon="2.2353">
        <ele>126</ele>
        <time>2017-11-14T11:09:33Z</time>
      </trkpt>
      <trkpt lat="48.74766" lon="2.23516">
        <ele>127</ele>
        <time>2017-11-14T11:09:38Z</time>
      </trkpt>
      <trkpt lat="48.7475" lon="2.23501">
        <ele>125</ele>
        <time>2017-11-14T11:09:43Z</time>
      </trkpt>
      <trkpt lat="48.74744" lon="2.23466">
        <ele>121</ele>
        <time>2017-11-14T11:09:48Z</time>
      </trkpt>
      <trkpt lat="48.74655" lon="2.23465">
        <ele>121</ele>
        <time>2017-11-14T11:09:53Z</time>
      </trkpt>
      <trkpt lat="48.74601" lon="2.23459">
        <ele>115</ele>
        <time>2017-11-14T11:09:58Z</time>
      </trkpt>
      <trkpt lat="48.74543" lon="2.23465">
        <ele>109</ele>
        <time>2017-11-14T11:10:03Z</time>
      </trkpt>
      <trkpt lat="48.74434" lon="2.23525">
        <ele>104</ele>
        <time>2017-11-14T11:10:08Z</time>
      </trkpt>
      <trkpt lat="48.74335" lon="2.23618">
        <ele>110</ele>
        <time>2017-11-14T11:10:13Z</time>
      </trkpt>
      <trkpt lat="48.74304" lon="2.23749">
        <ele>116</ele>
        <time>2017-11-14T11:10:18Z</time>
      </trkpt>
      <trkpt lat="48.7426" lon="2.23723">
        <ele>104</ele>
        <time>2017-11-14T11:10:23Z</time>
      </trkpt>
      <trkpt lat="48.74187" lon="2.237">
        <ele>86</ele>
        <time>2017-11-14T11:10:28Z</time>
      </trkpt>
      <trkpt lat="48.74138" lon="2.23681">
        <ele>76</ele>
        <time>2017-11-14T11:10:33Z</time>
      </trkpt>
      <trkpt lat="48.74107" lon="2.23648">
        <ele>70</ele>
        <time>2017-11-14T11:10:38Z</time>
      </trkpt>
      <trkpt lat="48.74044" lon="2.23668">
        <ele>68</ele>
        <time>2017-11-14T11:10:43Z</time>
      </trkpt>
      <trkpt lat="48.73991" lon="2.23692">
        <ele>68</ele>
        <time>2017-11-14T11:10:48Z</time>
      </trkpt>
      <trkpt lat="48.73945" lon="2.23746">
        <ele>68</ele>
        <time>2017-11-14T11:10:53Z</time>
      </trkpt>
      <trkpt lat="48.73873" lon="2.23772">
        <ele>65</ele>
        <time>2017-11-14T11:10:58Z</time>
      </trkpt>
      <trkpt lat="48.73856" lon="2.23851">
        <ele>66</ele>
        <time>2017-11-14T11:11:03Z</time>
      </trkpt>
      <trkpt lat="48.73837" lon="2.23965">
        <ele>66</ele>
        <time>2017-11-14T11:11:08Z</time>
      </trkpt>
      <trkpt lat="48.73865" lon="2.24156">
        <ele>68</ele>
        <time>2017-11-14T11:11:13Z</time>
      </trkpt>
      <trkpt lat="48.73832" lon="2.24174">
        <ele>66</ele>
        <time>2017-11-14T11:11:18Z</time>
      </trkpt>
      <trkpt lat="48.73791" lon="2.24177">
        <ele>65</ele>
        <time>2017-11-14T11:11:23Z</time>
      </trkpt>
      <trkpt lat="48.73794" lon="2.24266">
        <ele>65</ele>
        <time>2017-11-14T11:11:28Z</time>
      </trkpt>
      <trkpt lat="48.73717" lon="2.24294">
        <ele>66</ele>
        <time>2017-11-14T11:11:33Z</time>
      </trkpt>
      <trkpt lat="48.73715" lon="2.24359">
        <ele>65</ele>
        <time>2017-11-14T11:11:38Z</time>
      </trkpt>
      <trkpt lat="48.73713" lon="2.24387">
        <ele>65</ele>
        <time>2017-11-14T11:11:43Z</time>
      </trkpt>
      <trkpt lat="48.73725" lon="2.2442">
        <ele>64</ele>
        <time>2017-11-14T11:11:48Z</time>
      </trkpt>
      <trkpt lat="48.7376" lon="2.24484">
        <ele>66</ele>
        <time>2017-11-14T11:11:53Z</time>
      </trkpt>
      <trkpt lat="48.73764" lon="2.24558">
        <ele>67</ele>
        <time>2017-11-14T11:11:58Z</time>
      </trkpt>
      <trkpt lat="48.73709" lon="2.24665">
        <ele>65</ele>
        <time>2017-11-14T11:12:03Z</time>
      </trkpt>
      <trkpt lat="48.73709" lon="2.24715">
        <ele>66</ele>
        <time>2017-11-14T11:12:08Z</time>
      </trkpt>
      <trkpt lat="48.73683" lon="2.24809">
        <ele>66</ele>
        <time>2017-11-14T11:12:13Z</time>
      </trkpt>
      <trkpt lat="48.73746" lon="2.24961">
        <ele>67</ele>
        <time>2017-11-14T11:12:18Z</time>
      </trkpt>
      <trkpt lat="48.73733" lon="2.24977">
        <ele>66</ele>
        <time>2017-11-14T11:12:23Z</time>
      </trkpt>
      <trkpt lat="48.73773" lon="2.25042">
        <ele>66</ele>
        <time>2017-11-14T11:12:28Z</time>
      </trkpt>
      <trkpt lat="48.73807" lon="2.25124">
        <ele>65</ele>
        <time>2017-11-14T11:12:33Z</time>
      </trkpt>
      <trkpt lat="48.73847" lon="2.25249">
        <ele>65</ele>
        <time>2017-11-14T11:12:38Z</time>
      </trkpt>
      <trkpt lat="48.73857" lon="2.25314">
        <ele>63</ele>
        <time>2017-11-14T11:12:43Z</time>
      </trkpt>
      <trkpt lat="48.73842" lon="2.25334">
        <ele>61</ele>
        <time>2017-11-14T11:12:48Z</time>
      </trkpt>
      <trkpt lat="48.73842" lon="2.254">
        <ele>61</ele>
        <time>2017-11-14T11:12:53Z</time>
      </trkpt>
      <trkpt lat="48.73825" lon="2.25474">
        <ele>61</ele>
        <time>2017-11-14T11:12:58Z</time>
      </trkpt>
      <trkpt lat="48.73758" lon="2.25734">
        <ele>65</ele>
        <time>2017-11-14T11:13:03Z</time>
      </trkpt>
      <trkpt lat="48.73743" lon="2.25839">
        <ele>63</ele>
        <time>2017-11-14T11:13:08Z</time>
      </trkpt>
      <trkpt lat="48.73749" lon="2.25935">
        <ele>62</ele>
        <time>2017-11-14T11:13:13Z</time>
      </trkpt>
      <trkpt lat="48.7377" lon="2.2609">
        <ele>64</ele>
        <time>2017-11-14T11:13:18Z</time>
      </trkpt>
      <trkpt lat="48.738" lon="2.2621">
        <ele>62</ele>
        <time>2017-11-14T11:13:23Z</time>
      </trkpt>
      <trkpt lat="48.73814" lon="2.26303">
        <ele>60</ele>
        <time>2017-11-14T11:13:28Z</time>
      </trkpt>
      <trkpt lat="48.73818" lon="2.26407">
        <ele>59</ele>
        <time>2017-11-14T11:13:33Z</time>
      </trkpt>
      <trkpt lat="48.73805" lon="2.26492">
        <ele>59</ele>
        <time>2017-11-14T11:13:38Z</time>
      </trkpt>
      <trkpt lat="48.73842" lon="2.26481">
        <ele>61</ele>
        <time>2017-11-14T11:13:43Z</time>
      </trkpt>
      <trkpt lat="48.73896" lon="2.26695">
        <ele>62</ele>
        <time>2017-11-14T11:13:48Z</time>
      </trkpt>
      <trkpt lat="48.7389" lon="2.26718">
        <ele>61</ele>
        <time>2017-11-14T11:13:53Z</time>
      </trkpt>
      <trkpt lat="48.74022" lon="2.26822">
        <ele>64</ele>
        <time>2017-11-14T11:13:58Z</time>
      </trkpt>
      <trkpt lat="48.73974" lon="2.26923">
        <ele>62</ele>
        <time>2017-11-14T11:14:03Z</time>
      </trkpt>
      <trkpt lat="48.74009" lon="2.26939">
        <ele>62</ele>
        <time>2017-11-14T11:14:08Z</time>
      </trkpt>
      <trkpt lat="48.74049" lon="2.27009">
        <ele>64</ele>
        <time>2017-11-14T11:14:13Z</time>
      </trkpt>
      <trkpt lat="48.74048" lon="2.27004">
        <ele>64</ele>
        <time>2017-10-16T08:08:17Z</time>
      </trkpt>
      <trkpt lat="48.74041" lon="2.27115">
        <ele>62</ele>
        <time>2017-10-16T08:08:22Z</time>
      </trkpt>
      <trkpt lat="48.74021" lon="2.27125">
        <ele>61</ele>
        <time>2017-10-16T08:08:27Z</time>
      </trkpt>
      <trkpt lat="48.74021" lon="2.27125">
        <ele>61</ele>
        <time>2017-11-14T11:14:33Z</time>
      </trkpt>
      <trkpt lat="48.74016" lon="2.27202">
        <ele>60</ele>
        <time>2017-11-14T11:14:38Z</time>
      </trkpt>
      <trkpt lat="48.74021" lon="2.27235">
        <ele>60</ele>
        <time>2017-11-14T11:14:43Z</time>
      </trkpt>
      <trkpt lat="48.74036" lon="2.27293">
        <ele>61</ele>
        <time>2017-11-14T11:14:48Z</time>
      </trkpt>
      <trkpt lat="48.74096" lon="2.27445">
        <ele>61</ele>
        <time>2017-11-14T11:14:53Z</time>
      </trkpt>
      <trkpt lat="48.74054" lon="2.27464">
        <ele>62</ele>
        <time>2017-11-14T11:14:58Z</time>
      </trkpt>
      <trkpt lat="48.7404" lon="2.27473">
        <ele>62</ele>
        <time>2017-11-14T11:15:03Z</time>
      </trkpt>
      <trkpt lat="48.74037" lon="2.27477">
        <ele>62</ele>
        <time>2017-10-16T08:08:52Z</time>
      </trkpt>
      <trkpt lat="48.73992" lon="2.27553">
        <ele>63</ele>
        <time>2017-10-16T08:08:57Z</time>
      </trkpt>
      <trkpt lat="48.74013" lon="2.27605">
        <ele>61</ele>
        <time>2017-10-16T08:09:02Z</time>
      </trkpt>
      <trkpt lat="48.74059" lon="2.27666">
        <ele>57</ele>
        <time>2017-10-16T08:09:07Z</time>
      </trkpt>
      <trkpt lat="48.74093" lon="2.27719">
        <ele>57</ele>
        <time>2017-10-16T08:09:12Z</time>
      </trkpt>
      <trkpt lat="48.74118" lon="2.27743">
        <ele>57</ele>
        <time>2017-10-16T08:09:17Z</time>
      </trkpt>
      <trkpt lat="48.74255" lon="2.28064">
        <ele>57</ele>
        <time>2017-11-14T11:15:38Z</time>
      </trkpt>
      <trkpt lat="48.74389" lon="2.284">
        <ele>55</ele>
        <time>2017-10-16T08:09:22Z</time>
      </trkpt>
      <trkpt lat="48.74362" lon="2.28404">
        <ele>55</ele>
        <time>2017-10-16T08:09:27Z</time>
      </trkpt>
      <trkpt lat="48.74317" lon="2.28437">
        <ele>56</ele>
        <time>2017-10-16T08:09:32Z</time>
      </trkpt>
      <trkpt lat="48.74324" lon="2.28452">
        <ele>56</ele>
        <time>2017-10-16T08:09:37Z</time>
      </trkpt>
      <trkpt lat="48.7434" lon="2.2849">
        <ele>56</ele>
        <time>2017-10-16T08:09:42Z</time>
      </trkpt>
      <trkpt lat="48.74355" lon="2.2851">
        <ele>56</ele>
        <time>2017-10-16T08:09:47Z</time>
      </trkpt>
      <trkpt lat="48.74352" lon="2.28536">
        <ele>55</ele>
        <time>2017-10-16T08:09:52Z</time>
      </trkpt>
      <trkpt lat="48.74396" lon="2.2863">
        <ele>54</ele>
        <time>2017-10-16T08:09:57Z</time>
      </trkpt>
      <trkpt lat="48.74428" lon="2.2871">
        <ele>54</ele>
        <time>2017-10-16T08:10:02Z</time>
      </trkpt>
      <trkpt lat="48.74445" lon="2.28741">
        <ele>53</ele>
        <time>2017-10-16T08:10:07Z</time>
      </trkpt>
      <trkpt lat="48.74462" lon="2.28781">
        <ele>53</ele>
        <time>2017-10-16T08:10:12Z</time>
      </trkpt>
      <trkpt lat="48.74465" lon="2.28811">
        <ele>53</ele>
        <time>2017-10-16T08:10:17Z</time>
      </trkpt>
      <trkpt lat="48.74487" lon="2.28826">
        <ele>53</ele>
        <time>2017-10-16T08:10:22Z</time>
      </trkpt>
      <trkpt lat="48.74535" lon="2.28928">
        <ele>52</ele>
        <time>2017-10-16T08:10:27Z</time>
      </trkpt>
      <trkpt lat="48.74573" lon="2.29002">
        <ele>52</ele>
        <time>2017-10-16T08:10:32Z</time>
      </trkpt>
      <trkpt lat="48.74589" lon="2.29067">
        <ele>52</ele>
        <time>2017-10-16T08:10:37Z</time>
      </trkpt>
      <trkpt lat="48.74607" lon="2.29199">
        <ele>53</ele>
        <time>2017-10-16T08:10:42Z</time>
      </trkpt>
      <trkpt lat="48.74624" lon="2.2922">
        <ele>53</ele>
        <time>2017-10-16T08:10:47Z</time>
      </trkpt>
      <trkpt lat="48.74649" lon="2.29232">
        <ele>53</ele>
        <time>2017-10-16T08:10:52Z</time>
      </trkpt>
      <trkpt lat="48.74712" lon="2.29321">
        <ele>55</ele>
        <time>2017-10-16T08:10:57Z</time>
      </trkpt>
      <trkpt lat="48.74733" lon="2.29336">
        <ele>54</ele>
        <time>2017-10-16T08:11:02Z</time>
      </trkpt>
      <trkpt lat="48.74762" lon="2.29361">
        <ele>54</ele>
        <time>2017-10-16T08:11:07Z</time>
      </trkpt>
    </trkseg>
  </trk>
</gpx>